Portada
METAR-TAF:

METAR-TAF

Aeroports :

Kosrae, Micronèsia

latitud: 05-21N, longitud: 162-57E, altitud: 3 m

METAR: manca

Hora: 18:31 (07:31 UTC)

Pronòstic

L'informe es va fer fa 26 hores i 11 minuts, a les 05:20 UTC
Pronòstic vàlid del 18 a les 06 UTC al 19 a les 06 UTC
Vent 8 kt del Est/Sud-Est
Visibilitat: 10 km
Núvols disperses a una alçada de 2100 ft
Núvols disperses a una alçada de 12000 ft
xàfecs en les proximitats

TAF: PTSA 180520Z 1806/1906 12008KT P6SM VCSH SCT021 SCT120

Observacions i pronòstics meteorològics de més de 4000 aeroports (METAR i TAF).

Les estacions disponibles són els punts grocs i vermells al mapa.

Posi el ratolí al punt desitjat per veure el nom de l'estació.

Feu clic per veure les observacions i els pronòstics meteorològics.

Per canviar el mapa: feu clic els botons verds amb una creu de color negre per apropar; al botó verd amb un guió per allunyar la imatge; o en les fletxes verdes per a mapes adjacents.


METAR-TAF: